• Join FlightAware (Why Join?)
  • Login
  • US Flag 
01:29AM EDT


 

Airport Tracker/Info


-or-


 

Live Flight TrackerFlight Track Log ✈ BER6638 ✈ 14-Jul-2013 ✈ EDSB / FKB - EDDT / TXL

Flight Track Log - Related Links

Times and Time Zones

All times are in EDT time to prevent confusion due to time zone crossing. See the BER6638 flight status page for this flight to view local times or setup timezone preferences in your user account.

Time Position Orientation Groundspeed Altitude Reporting Facility
EDT Latitude Longitude Course Direction KTS MPH feet Rate Location/Type
08:28AM 49.4629 8.9401 39° Northeast  Level Estimated
08:29AM 49.5385 9.0371 40° Northeast  Level Estimated
08:30AM 49.6140 9.1344 40° Northeast  Level Estimated
08:31AM 49.6894 9.2320 40° Northeast  Level Estimated
08:32AM 49.7647 9.3299 40° Northeast  Level Estimated
08:33AM 49.8399 9.4281 40° Northeast  Level Estimated
08:34AM 49.9150 9.5266 40° Northeast  Level Estimated
08:35AM 49.9901 9.6254 40° Northeast  Level Estimated
08:36AM 50.0651 9.7246 40° Northeast  Level Estimated
08:37AM 50.1400 9.8240 40° Northeast  Level Estimated
08:38AM 50.2148 9.9237 40° Northeast  Level Estimated
08:39AM 50.2895 10.0238 41° Northeast  Level Estimated
08:40AM 50.3641 10.1242 41° Northeast  Level Estimated
08:41AM 50.4387 10.2248 41° Northeast  Level Estimated
08:42AM 50.5131 10.3258 41° Northeast  Level Estimated
08:43AM 50.5875 10.4272 41° Northeast  Level Estimated
08:44AM 50.6618 10.5288 41° Northeast  Level Estimated
08:45AM 50.7360 10.6308 41° Northeast  Level Estimated
08:46AM 50.8101 10.7331 41° Northeast  Level Estimated
08:47AM 50.8841 10.8357 41° Northeast  Level Estimated
08:48AM 50.9581 10.9386 41° Northeast  Level Estimated
08:49AM 51.0319 11.0419 41° Northeast  Level Estimated
08:50AM 51.1057 11.1455 41° Northeast  Level Estimated
08:51AM 51.1793 11.2494 41° Northeast  Level Estimated
08:52AM 51.2529 11.3537 42° Northeast  Level Estimated
08:53AM 51.3263 11.4583 42° Northeast  Level Estimated
08:54AM 51.3997 11.5632 42° Northeast  Level Estimated
08:55AM 51.4730 11.6685 42° Northeast  Level Estimated
08:56AM 51.5462 11.7741 42° Northeast  Level Estimated
08:57AM 51.6193 11.8801 42° Northeast  Level Estimated
08:58AM 51.6923 11.9864 42° Northeast  Level Estimated
08:59AM 51.7652 12.0930 42° Northeast  Level Estimated
09:00AM 51.8380 12.2000 42° Northeast  Level Estimated
09:01AM 51.9107 12.3073 42° Northeast  Level Estimated
09:02AM 51.9833 12.4150 42° Northeast  Level Estimated
09:03AM 52.0558 12.5230 42° Northeast  Level Estimated
09:04AM 52.1282 12.6313 43° Northeast  Level Estimated
09:05AM 52.2005 12.7401 43° Northeast  Level Estimated
09:06AM 52.2727 12.8491 43° Northeast  Level Estimated
09:07AM 52.3448 12.9586 43° Northeast  Level Estimated
09:08AM 52.4169 13.0684 43° Northeast  Level Estimated
09:09AM 52.4888 13.1785 43° Northeast  Level Estimated
09:10AM 52.5597 13.2877 43° Northeast  Level Estimated
09:11AM 52.5597 13.2877 171° South  Level Estimated
09:12AM 52.5597 13.2877 171° South  Level Estimated
09:13AM 52.5597 13.2877 171° South  Level Estimated
09:14AM 52.5597 13.2877 171° South  Level Estimated
09:15AM 52.5597 13.2877 171° South  Level Estimated
09:16AM 52.5597 13.2877 171° South  Level Estimated
09:17AM 52.5597 13.2877 171° South  Level Estimated
09:18AM 52.5597 13.2877 171° South  Level Estimated
09:19AM 52.5597 13.2877 171° South  Level Estimated
09:20AM 52.5597 13.2877 171° South  Level Estimated
09:21AM 52.5597 13.2877 171° South  Level Estimated
09:22AM 52.5597 13.2877 171° South  Level Estimated
09:23AM 52.5597 13.2877 171° South  Level Estimated
09:24AM 52.5597 13.2877 171° South  Level Estimated
09:25AM 52.5597 13.2877 171° South  Level Estimated